createdAt,value
2023-02-06T00:01:06.506Z,6.63
2023-02-06T00:06:08.684Z,7.22
2023-02-06T00:11:13.388Z,6.90
2023-02-06T00:16:16.317Z,7.43
2023-02-06T00:21:20.226Z,7.35
2023-02-06T00:26:22.767Z,7.07
2023-02-06T00:31:24.453Z,6.72
2023-02-06T00:36:26.301Z,7.75
2023-02-06T00:41:27.996Z,6.80
2023-02-06T00:46:29.800Z,6.70
2023-02-06T00:51:31.508Z,7.30
2023-02-06T00:56:33.565Z,6.70
2023-02-06T01:01:35.220Z,7.10
2023-02-06T01:06:36.958Z,6.77
2023-02-06T01:11:38.654Z,7.50
2023-02-06T01:16:40.372Z,8.10
2023-02-06T01:21:42.133Z,8.93
2023-02-06T01:26:43.932Z,10.00
2023-02-06T01:31:45.746Z,11.05
2023-02-06T01:36:47.508Z,10.63
2023-02-06T01:41:50.999Z,9.00
2023-02-06T01:46:55.782Z,10.57
2023-02-06T01:52:07.523Z,11.38
2023-02-06T01:57:12.481Z,10.63
2023-02-06T02:02:14.348Z,10.15
2023-02-06T02:07:31.793Z,8.73
2023-02-06T02:12:33.674Z,9.45
2023-02-06T02:18:02.762Z,9.13
2023-02-06T02:23:30.491Z,9.82
2023-02-06T02:28:34.162Z,9.02
2023-02-06T02:34:13.806Z,9.63
2023-02-06T02:39:21.518Z,9.88
2023-02-06T02:44:43.055Z,9.77
2023-02-06T02:49:45.878Z,9.73
2023-02-06T02:54:47.719Z,10.43
2023-02-06T02:59:51.791Z,10.73
2023-02-06T03:05:00.725Z,9.35
2023-02-06T03:10:31.489Z,10.23
2023-02-06T03:15:50.510Z,9.10
2023-02-06T03:20:52.808Z,9.45
2023-02-06T03:25:58.242Z,10.05
2023-02-06T03:31:05.588Z,9.25
2023-02-06T03:36:09.963Z,8.55
2023-02-06T03:41:13.771Z,9.90
2023-02-06T03:46:18.111Z,9.98
2023-02-06T03:51:28.360Z,8.57
2023-02-06T03:56:47.053Z,9.43
2023-02-06T04:01:53.029Z,9.32
2023-02-06T04:06:57.672Z,8.95
2023-02-06T04:11:59.320Z,9.32
2023-02-06T04:17:00.981Z,8.60
2023-02-06T04:22:03.436Z,9.47
2023-02-06T04:32:09.172Z,9.13
2023-02-06T04:37:12.480Z,9.00
2023-02-06T04:42:14.129Z,8.52
2023-02-06T04:47:15.858Z,8.40
2023-02-06T04:52:17.635Z,8.73
2023-02-06T04:57:19.421Z,9.05
2023-02-06T05:02:21.324Z,9.07
2023-02-06T05:07:23.007Z,9.23
2023-02-06T05:12:24.899Z,8.77
2023-02-06T05:17:26.623Z,8.10
2023-02-06T05:22:28.438Z,8.32
2023-02-06T05:27:30.108Z,7.73
2023-02-06T05:32:31.762Z,8.40
2023-02-06T05:37:33.510Z,7.90
2023-02-06T05:42:35.840Z,10.32
2023-02-06T05:47:37.488Z,8.95
2023-02-06T05:52:39.224Z,16.30
2023-02-06T05:57:41.018Z,12.57
2023-02-06T06:02:42.664Z,11.82
2023-02-06T06:07:44.362Z,8.50
2023-02-06T06:12:46.094Z,9.43
2023-02-06T06:17:47.831Z,9.32
2023-02-06T06:22:49.510Z,12.95
2023-02-06T06:27:51.209Z,11.85
2023-02-06T06:32:52.936Z,10.60
2023-02-06T06:37:54.579Z,8.90
2023-02-06T06:42:56.301Z,9.30
2023-02-06T06:47:58.112Z,11.63
2023-02-06T06:52:59.880Z,13.95
2023-02-06T06:58:01.617Z,13.43
2023-02-06T07:03:03.444Z,12.48
2023-02-06T07:08:05.529Z,9.57
2023-02-06T07:13:07.176Z,10.30
2023-02-06T07:18:11.382Z,9.50
2023-02-06T07:23:13.289Z,8.93
2023-02-06T07:28:15.070Z,9.33
2023-02-06T07:33:16.971Z,9.50
2023-02-06T07:38:18.587Z,9.43
2023-02-06T07:43:20.308Z,9.97
2023-02-06T07:53:24.173Z,10.32
2023-02-06T07:58:26.061Z,12.17
2023-02-06T08:03:27.708Z,13.68
2023-02-06T08:08:29.335Z,11.87
2023-02-06T08:13:31.350Z,12.32
2023-02-06T08:18:33.944Z,14.27
2023-02-06T08:28:38.007Z,11.77
2023-02-06T08:38:42.372Z,12.70
2023-02-06T08:48:46.872Z,13.10
2023-02-06T08:53:48.651Z,14.27
2023-02-06T08:58:50.413Z,13.37
2023-02-06T09:04:00.335Z,14.55
2023-02-06T09:09:02.614Z,12.93
2023-02-06T09:14:05.689Z,14.10
2023-02-06T09:19:10.671Z,13.68
2023-02-06T09:24:12.380Z,13.55
2023-02-06T09:29:14.254Z,14.63
2023-02-06T09:34:15.967Z,14.23
2023-02-06T09:39:17.978Z,15.43
2023-02-06T09:44:24.401Z,13.77
2023-02-06T09:49:39.333Z,13.32
2023-02-06T09:54:56.728Z,12.98
2023-02-06T10:00:02.757Z,12.68
2023-02-06T10:05:22.317Z,13.20
2023-02-06T10:10:37.843Z,13.52
2023-02-06T10:15:47.531Z,11.13
2023-02-06T10:21:01.660Z,10.95
2023-02-06T10:26:17.062Z,9.50
2023-02-06T10:31:30.535Z,10.30
2023-02-06T10:37:10.358Z,8.88
2023-02-06T10:42:33.648Z,7.65
2023-02-06T10:47:46.079Z,5.93
2023-02-06T10:52:48.692Z,6.88
2023-02-06T11:03:07.579Z,6.80
2023-02-06T11:08:20.394Z,6.38
2023-02-06T11:13:33.757Z,6.13
2023-02-06T11:18:39.052Z,6.10
2023-02-06T11:23:42.234Z,6.13
2023-02-06T11:29:08.814Z,6.70
2023-02-06T11:34:25.987Z,6.25
2023-02-06T11:39:34.099Z,7.20
2023-02-06T11:44:41.053Z,6.35
2023-02-06T11:49:42.817Z,6.32
2023-02-06T11:54:54.465Z,7.00
2023-02-06T12:00:20.774Z,6.15
2023-02-06T12:05:28.549Z,7.25
2023-02-06T12:10:36.343Z,7.68
2023-02-06T12:15:48.052Z,7.07
2023-02-06T12:21:05.245Z,8.73
2023-02-06T12:26:18.083Z,8.02
2023-02-06T12:31:26.653Z,8.57
2023-02-06T12:36:35.209Z,8.75
2023-02-06T12:42:01.794Z,10.32
2023-02-06T12:47:13.974Z,9.75
2023-02-06T12:52:33.818Z,8.60
2023-02-06T12:57:37.129Z,8.82
2023-02-06T13:02:51.830Z,7.78
2023-02-06T13:07:57.130Z,7.95
2023-02-06T13:12:59.657Z,8.80
2023-02-06T13:18:01.502Z,8.07
2023-02-06T13:23:12.086Z,7.32
2023-02-06T13:28:23.032Z,7.40
2023-02-06T13:33:27.019Z,7.10
2023-02-06T13:38:35.034Z,7.13
2023-02-06T13:43:37.413Z,7.00
2023-02-06T13:49:33.094Z,6.80
2023-02-06T13:54:53.246Z,6.25
2023-02-06T14:00:17.352Z,5.85
2023-02-06T14:05:22.406Z,5.60
2023-02-06T14:11:10.306Z,5.13
2023-02-06T14:16:50.572Z,5.68
2023-02-06T14:22:12.597Z,9.52
2023-02-06T14:27:26.565Z,6.60
2023-02-06T14:32:28.517Z,5.88
2023-02-06T14:38:01.013Z,5.82
2023-02-06T14:43:07.990Z,7.45
2023-02-06T14:48:34.284Z,8.90
2023-02-06T14:53:40.648Z,10.15
2023-02-06T14:58:46.573Z,10.35
2023-02-06T15:03:52.437Z,9.05
2023-02-06T15:08:54.308Z,10.07
2023-02-06T15:13:56.483Z,9.97
2023-02-06T15:19:22.463Z,10.45
2023-02-06T15:24:51.706Z,9.88
2023-02-06T15:29:54.376Z,9.60
2023-02-06T15:40:06.615Z,12.35
2023-02-06T15:45:17.758Z,11.65
2023-02-06T15:50:22.077Z,12.60
2023-02-06T15:55:27.211Z,11.98
2023-02-06T16:00:34.975Z,11.50
2023-02-06T16:05:42.041Z,11.48
2023-02-06T16:10:49.996Z,11.80
2023-02-06T16:16:02.521Z,11.18
2023-02-06T16:21:16.287Z,11.18
2023-02-06T16:26:27.639Z,11.02
2023-02-06T16:31:31.775Z,13.38
2023-02-06T16:36:33.837Z,13.32
2023-02-06T16:41:38.143Z,14.07
2023-02-06T16:46:40.477Z,13.02
2023-02-06T16:51:44.043Z,13.25
2023-02-06T16:56:46.283Z,11.63
2023-02-06T17:01:47.971Z,10.68
2023-02-06T17:06:50.287Z,11.25
2023-02-06T17:11:53.189Z,10.13
2023-02-06T17:16:55.650Z,10.80
2023-02-06T17:27:01.363Z,9.45
2023-02-06T17:32:03.309Z,11.40
2023-02-06T17:37:08.056Z,11.55
2023-02-06T17:42:09.696Z,13.05
2023-02-06T17:47:11.460Z,11.70
2023-02-06T17:52:13.305Z,12.17
2023-02-06T17:57:15.024Z,12.57
2023-02-06T18:02:16.961Z,11.77
2023-02-06T18:07:18.743Z,13.50
2023-02-06T18:12:20.537Z,11.97
2023-02-06T18:17:22.540Z,12.27
2023-02-06T18:22:24.225Z,13.23
2023-02-06T18:27:25.919Z,13.55
2023-02-06T18:32:27.777Z,17.65
2023-02-06T18:37:29.725Z,13.27
2023-02-06T18:42:50.039Z,11.43
2023-02-06T18:47:52.140Z,11.95
2023-02-06T18:52:53.878Z,13.93
2023-02-06T18:57:55.595Z,12.43
2023-02-06T19:02:58.318Z,12.67
2023-02-06T19:13:01.499Z,11.55
2023-02-06T19:18:05.516Z,11.30
2023-02-06T19:23:08.405Z,10.55
2023-02-06T19:28:10.393Z,10.20
2023-02-06T19:33:12.157Z,9.90
2023-02-06T19:38:13.812Z,10.43
2023-02-06T19:43:16.177Z,10.23
2023-02-06T19:48:17.995Z,12.43
2023-02-06T19:53:19.652Z,13.60
2023-02-06T19:58:21.330Z,15.43
2023-02-06T20:03:23.431Z,10.60
2023-02-06T20:08:25.208Z,10.88
2023-02-06T20:13:27.257Z,12.85
2023-02-06T20:18:33.562Z,10.80
2023-02-06T20:23:38.317Z,10.75
2023-02-06T20:28:39.987Z,13.57
2023-02-06T20:33:42.821Z,11.23
2023-02-06T20:38:49.431Z,9.93
2023-02-06T20:43:51.404Z,12.38
2023-02-06T20:49:02.242Z,12.90
2023-02-06T20:54:04.538Z,11.63
2023-02-06T20:59:07.066Z,13.77
2023-02-06T21:04:11.269Z,13.00
2023-02-06T21:09:12.902Z,14.50
2023-02-06T21:14:14.857Z,13.90
2023-02-06T21:19:18.941Z,12.75
2023-02-06T21:24:20.618Z,12.02
2023-02-06T21:29:25.089Z,12.30
2023-02-06T21:34:26.857Z,14.13
2023-02-06T21:39:30.465Z,14.60
2023-02-06T21:44:32.150Z,15.75
2023-02-06T21:49:33.848Z,14.03
2023-02-06T21:54:35.571Z,14.33
2023-02-06T21:59:38.404Z,14.00
2023-02-06T22:04:40.099Z,12.38
2023-02-06T22:09:41.987Z,12.77
2023-02-06T22:14:43.662Z,15.07
2023-02-06T22:19:45.769Z,15.00
2023-02-06T22:24:50.454Z,14.82
2023-02-06T22:29:52.202Z,16.58
2023-02-06T22:34:54.046Z,17.23
2023-02-06T22:39:55.881Z,15.87
2023-02-06T22:44:57.653Z,15.93
2023-02-06T22:49:59.468Z,15.93
2023-02-06T22:55:03.165Z,15.67
2023-02-06T23:00:09.277Z,16.30
2023-02-06T23:05:11.209Z,17.63
2023-02-06T23:10:12.825Z,16.52
2023-02-06T23:15:14.585Z,17.27
2023-02-06T23:20:16.482Z,17.08
2023-02-06T23:25:18.140Z,16.15
2023-02-06T23:30:20.201Z,17.30
2023-02-06T23:35:21.923Z,16.50
2023-02-06T23:40:23.708Z,15.68
2023-02-06T23:45:26.240Z,16.42
2023-02-06T23:50:28.134Z,15.77
2023-02-06T23:55:30.600Z,16.38
